Terminal Aerodrome Forecast
Issued by NWS Sterling, VA

Home | Current Version | Previous Version | Text Only | Print | Product List | Glossary On
Versions: 1 2 3 4 5 6 7 8 9 10 11 12 13 14 15 16 17 18 19 20 21 22 23
000
FTUS41 KLWX 012300
TAFDCA
TAF
KDCA 012320Z 0200/0224 VRB03KT P6SM SCT040
     FM020200 VRB03KT P6SM SCT140
     FM020600 00000KT P6SM SCT010 BKN035
     FM021200 00000KT P6SM FEW010 SCT150
     FM021600 VRB03KT P6SM SCT050=

USA.gov is the U.S. government's official web portal to all federal, state and local government web resources and services.